sensor_id;sensor_type;location;lat;lon;timestamp;temperature;humidity
31677;DHT22;18385;51.572;6.578;2022-11-14T00:00:54;9.30;64.50
31677;DHT22;18385;51.572;6.578;2022-11-14T00:03:39;9.30;64.50
31677;DHT22;18385;51.572;6.578;2022-11-14T00:06:23;9.20;64.50
31677;DHT22;18385;51.572;6.578;2022-11-14T00:09:07;9.10;64.50
31677;DHT22;18385;51.572;6.578;2022-11-14T00:11:51;9.00;64.60
31677;DHT22;18385;51.572;6.578;2022-11-14T00:14:35;9.00;65.50
31677;DHT22;18385;51.572;6.578;2022-11-14T00:17:20;8.90;64.80
31677;DHT22;18385;51.572;6.578;2022-11-14T00:20:06;8.80;64.90
31677;DHT22;18385;51.572;6.578;2022-11-14T00:22:51;8.70;65.00
31677;DHT22;18385;51.572;6.578;2022-11-14T00:25:35;8.60;65.00
31677;DHT22;18385;51.572;6.578;2022-11-14T00:28:19;8.50;65.10
31677;DHT22;18385;51.572;6.578;2022-11-14T00:31:03;8.40;65.20
31677;DHT22;18385;51.572;6.578;2022-11-14T00:33:48;8.30;65.30
31677;DHT22;18385;51.572;6.578;2022-11-14T00:36:32;8.20;65.50
31677;DHT22;18385;51.572;6.578;2022-11-14T00:39:16;8.20;65.60
31677;DHT22;18385;51.572;6.578;2022-11-14T00:42:00;8.10;65.60
31677;DHT22;18385;51.572;6.578;2022-11-14T00:44:44;8.10;65.70
31677;DHT22;18385;51.572;6.578;2022-11-14T00:47:29;8.00;65.80
31677;DHT22;18385;51.572;6.578;2022-11-14T00:50:15;8.00;65.80
31677;DHT22;18385;51.572;6.578;2022-11-14T00:53:00;7.90;65.80
31677;DHT22;18385;51.572;6.578;2022-11-14T00:55:44;7.90;66.60
31677;DHT22;18385;51.572;6.578;2022-11-14T00:58:28;7.80;65.90
31677;DHT22;18385;51.572;6.578;2022-11-14T01:01:12;7.80;66.00
31677;DHT22;18385;51.572;6.578;2022-11-14T01:03:56;7.80;66.00
31677;DHT22;18385;51.572;6.578;2022-11-14T01:06:40;7.80;66.10
31677;DHT22;18385;51.572;6.578;2022-11-14T01:09:24;7.70;66.00
31677;DHT22;18385;51.572;6.578;2022-11-14T01:12:09;7.70;66.20
31677;DHT22;18385;51.572;6.578;2022-11-14T01:14:53;7.70;66.20
31677;DHT22;18385;51.572;6.578;2022-11-14T01:17:37;7.70;66.20
31677;DHT22;18385;51.572;6.578;2022-11-14T01:20:21;7.70;66.20
31677;DHT22;18385;51.572;6.578;2022-11-14T01:23:07;7.70;66.20
31677;DHT22;18385;51.572;6.578;2022-11-14T01:25:51;7.70;66.20
31677;DHT22;18385;51.572;6.578;2022-11-14T01:28:35;7.80;66.30
31677;DHT22;18385;51.572;6.578;2022-11-14T01:31:22;7.70;66.30
31677;DHT22;18385;51.572;6.578;2022-11-14T01:34:07;7.70;66.30
31677;DHT22;18385;51.572;6.578;2022-11-14T01:36:51;7.80;66.50
31677;DHT22;18385;51.572;6.578;2022-11-14T01:39:35;7.90;66.60
31677;DHT22;18385;51.572;6.578;2022-11-14T01:42:19;8.00;66.60
31677;DHT22;18385;51.572;6.578;2022-11-14T01:51:28;8.10;66.30
31677;DHT22;18385;51.572;6.578;2022-11-14T01:54:22;8.20;66.30
31677;DHT22;18385;51.572;6.578;2022-11-14T01:57:08;8.20;66.30
31677;DHT22;18385;51.572;6.578;2022-11-14T01:59:56;8.10;66.20
31677;DHT22;18385;51.572;6.578;2022-11-14T02:02:42;8.10;66.20
31677;DHT22;18385;51.572;6.578;2022-11-14T02:05:26;8.00;66.20
31677;DHT22;18385;51.572;6.578;2022-11-14T02:08:13;8.00;66.40
31677;DHT22;18385;51.572;6.578;2022-11-14T02:10:57;7.90;66.40
31677;DHT22;18385;51.572;6.578;2022-11-14T02:13:41;7.90;66.50
31677;DHT22;18385;51.572;6.578;2022-11-14T02:16:26;7.90;66.50
31677;DHT22;18385;51.572;6.578;2022-11-14T02:19:13;7.80;66.60
31677;DHT22;18385;51.572;6.578;2022-11-14T02:21:57;7.70;66.70
31677;DHT22;18385;51.572;6.578;2022-11-14T02:24:43;7.70;66.70
31677;DHT22;18385;51.572;6.578;2022-11-14T02:27:29;7.60;67.40
31677;DHT22;18385;51.572;6.578;2022-11-14T02:30:17;7.50;66.70
31677;DHT22;18385;51.572;6.578;2022-11-14T02:33:02;7.40;66.70
31677;DHT22;18385;51.572;6.578;2022-11-14T02:35:46;7.30;66.90
31677;DHT22;18385;51.572;6.578;2022-11-14T02:38:30;7.20;67.00
31677;DHT22;18385;51.572;6.578;2022-11-14T02:41:14;7.20;67.20
31677;DHT22;18385;51.572;6.578;2022-11-14T02:43:58;7.20;67.20
31677;DHT22;18385;51.572;6.578;2022-11-14T02:46:42;7.10;67.20
31677;DHT22;18385;51.572;6.578;2022-11-14T02:49:26;7.10;67.20
31677;DHT22;18385;51.572;6.578;2022-11-14T02:52:11;7.10;67.20
31677;DHT22;18385;51.572;6.578;2022-11-14T02:54:55;7.10;67.30
31677;DHT22;18385;51.572;6.578;2022-11-14T02:57:40;7.10;67.30
31677;DHT22;18385;51.572;6.578;2022-11-14T03:00:23;7.00;67.30
31677;DHT22;18385;51.572;6.578;2022-11-14T03:03:07;7.00;68.10
31677;DHT22;18385;51.572;6.578;2022-11-14T03:05:51;7.10;67.40
31677;DHT22;18385;51.572;6.578;2022-11-14T03:08:36;7.10;67.40
31677;DHT22;18385;51.572;6.578;2022-11-14T03:11:21;7.10;67.40
31677;DHT22;18385;51.572;6.578;2022-11-14T03:14:05;7.20;67.50
31677;DHT22;18385;51.572;6.578;2022-11-14T03:16:49;7.20;67.40
31677;DHT22;18385;51.572;6.578;2022-11-14T03:19:33;7.30;67.30
31677;DHT22;18385;51.572;6.578;2022-11-14T03:22:18;7.30;67.30
31677;DHT22;18385;51.572;6.578;2022-11-14T03:25:02;7.30;67.30
31677;DHT22;18385;51.572;6.578;2022-11-14T03:27:47;7.30;67.30
31677;DHT22;18385;51.572;6.578;2022-11-14T03:30:31;7.30;67.20
31677;DHT22;18385;51.572;6.578;2022-11-14T03:33:15;7.30;67.30
31677;DHT22;18385;51.572;6.578;2022-11-14T03:35:59;7.30;67.30
31677;DHT22;18385;51.572;6.578;2022-11-14T03:38:43;7.30;67.40
31677;DHT22;18385;51.572;6.578;2022-11-14T03:41:28;7.20;67.30
31677;DHT22;18385;51.572;6.578;2022-11-14T03:44:12;7.20;67.40
31677;DHT22;18385;51.572;6.578;2022-11-14T03:46:56;7.10;67.50
31677;DHT22;18385;51.572;6.578;2022-11-14T03:49:40;7.10;67.50
31677;DHT22;18385;51.572;6.578;2022-11-14T03:52:24;7.10;67.60
31677;DHT22;18385;51.572;6.578;2022-11-14T03:55:09;7.00;68.40
31677;DHT22;18385;51.572;6.578;2022-11-14T03:57:53;7.00;67.60
31677;DHT22;18385;51.572;6.578;2022-11-14T04:00:37;7.00;67.70
31677;DHT22;18385;51.572;6.578;2022-11-14T04:03:22;7.00;67.80
31677;DHT22;18385;51.572;6.578;2022-11-14T04:06:06;6.90;67.80
31677;DHT22;18385;51.572;6.578;2022-11-14T04:08:50;6.90;67.90
31677;DHT22;18385;51.572;6.578;2022-11-14T04:11:34;6.90;67.90
31677;DHT22;18385;51.572;6.578;2022-11-14T04:14:18;6.90;67.90
31677;DHT22;18385;51.572;6.578;2022-11-14T04:17:03;6.90;67.90
31677;DHT22;18385;51.572;6.578;2022-11-14T04:19:47;6.90;67.90
31677;DHT22;18385;51.572;6.578;2022-11-14T04:22:31;6.80;67.90
31677;DHT22;18385;51.572;6.578;2022-11-14T04:25:16;6.80;68.00
31677;DHT22;18385;51.572;6.578;2022-11-14T04:28:00;6.70;68.00
31677;DHT22;18385;51.572;6.578;2022-11-14T04:30:44;6.70;68.00
31677;DHT22;18385;51.572;6.578;2022-11-14T04:33:29;6.70;68.10
31677;DHT22;18385;51.572;6.578;2022-11-14T04:36:13;6.60;68.10
31677;DHT22;18385;51.572;6.578;2022-11-14T04:38:57;6.60;68.20
31677;DHT22;18385;51.572;6.578;2022-11-14T04:41:42;6.60;68.30
31677;DHT22;18385;51.572;6.578;2022-11-14T04:44:26;6.50;68.20
31677;DHT22;18385;51.572;6.578;2022-11-14T04:47:10;6.50;68.30
31677;DHT22;18385;51.572;6.578;2022-11-14T04:49:54;6.50;68.30
31677;DHT22;18385;51.572;6.578;2022-11-14T04:52:38;6.40;68.30
31677;DHT22;18385;51.572;6.578;2022-11-14T04:55:22;6.40;68.30
31677;DHT22;18385;51.572;6.578;2022-11-14T04:58:06;6.40;68.40
31677;DHT22;18385;51.572;6.578;2022-11-14T05:00:50;6.40;68.40
31677;DHT22;18385;51.572;6.578;2022-11-14T05:03:35;6.40;68.40
31677;DHT22;18385;51.572;6.578;2022-11-14T05:06:20;6.40;68.30
31677;DHT22;18385;51.572;6.578;2022-11-14T05:09:04;6.40;68.30
31677;DHT22;18385;51.572;6.578;2022-11-14T05:11:48;6.30;68.40
31677;DHT22;18385;51.572;6.578;2022-11-14T05:14:33;6.30;68.40
31677;DHT22;18385;51.572;6.578;2022-11-14T05:17:17;6.20;68.50
31677;DHT22;18385;51.572;6.578;2022-11-14T05:20:01;6.20;68.50
31677;DHT22;18385;51.572;6.578;2022-11-14T05:22:45;6.10;68.50
31677;DHT22;18385;51.572;6.578;2022-11-14T05:25:29;6.10;68.50
31677;DHT22;18385;51.572;6.578;2022-11-14T05:28:13;6.10;68.60
31677;DHT22;18385;51.572;6.578;2022-11-14T05:31:09;6.10;68.60
31677;DHT22;18385;51.572;6.578;2022-11-14T05:33:53;6.10;68.70
31677;DHT22;18385;51.572;6.578;2022-11-14T05:36:37;6.00;68.60
31677;DHT22;18385;51.572;6.578;2022-11-14T05:39:22;6.00;68.70
31677;DHT22;18385;51.572;6.578;2022-11-14T05:42:06;6.00;68.70
31677;DHT22;18385;51.572;6.578;2022-11-14T05:44:50;5.90;68.70
31677;DHT22;18385;51.572;6.578;2022-11-14T05:47:34;5.90;69.50
31677;DHT22;18385;51.572;6.578;2022-11-14T05:50:18;5.90;68.70
31677;DHT22;18385;51.572;6.578;2022-11-14T05:53:03;5.90;68.80
31677;DHT22;18385;51.572;6.578;2022-11-14T05:55:47;5.90;68.80
31677;DHT22;18385;51.572;6.578;2022-11-14T05:58:32;5.80;68.80
31677;DHT22;18385;51.572;6.578;2022-11-14T06:01:18;5.80;68.80
31677;DHT22;18385;51.572;6.578;2022-11-14T06:04:04;5.80;68.90
31677;DHT22;18385;51.572;6.578;2022-11-14T06:06:49;5.80;68.90
31677;DHT22;18385;51.572;6.578;2022-11-14T06:09:33;5.70;69.00
31677;DHT22;18385;51.572;6.578;2022-11-14T06:12:17;5.80;69.10
31677;DHT22;18385;51.572;6.578;2022-11-14T06:15:01;5.90;69.00
31677;DHT22;18385;51.572;6.578;2022-11-14T06:17:46;5.90;69.00
31677;DHT22;18385;51.572;6.578;2022-11-14T06:20:30;6.00;69.10
31677;DHT22;18385;51.572;6.578;2022-11-14T06:23:14;6.00;69.00
31677;DHT22;18385;51.572;6.578;2022-11-14T06:26:03;6.10;68.90
31677;DHT22;18385;51.572;6.578;2022-11-14T06:28:48;6.10;68.90
31677;DHT22;18385;51.572;6.578;2022-11-14T06:31:33;6.10;68.70
31677;DHT22;18385;51.572;6.578;2022-11-14T06:34:17;6.10;68.80
31677;DHT22;18385;51.572;6.578;2022-11-14T06:37:01;6.10;68.80
31677;DHT22;18385;51.572;6.578;2022-11-14T06:39:45;6.10;68.80
31677;DHT22;18385;51.572;6.578;2022-11-14T06:42:29;6.00;68.70
31677;DHT22;18385;51.572;6.578;2022-11-14T06:45:13;6.00;68.80
31677;DHT22;18385;51.572;6.578;2022-11-14T06:47:58;6.00;68.90
31677;DHT22;18385;51.572;6.578;2022-11-14T06:50:43;6.00;68.90
31677;DHT22;18385;51.572;6.578;2022-11-14T06:53:28;6.00;68.90
31677;DHT22;18385;51.572;6.578;2022-11-14T06:56:15;6.00;68.90
31677;DHT22;18385;51.572;6.578;2022-11-14T06:59:00;6.00;68.90
31677;DHT22;18385;51.572;6.578;2022-11-14T07:01:44;6.00;68.90
31677;DHT22;18385;51.572;6.578;2022-11-14T07:04:28;6.00;68.90
31677;DHT22;18385;51.572;6.578;2022-11-14T07:07:12;6.00;68.90
31677;DHT22;18385;51.572;6.578;2022-11-14T07:09:56;6.00;68.90
31677;DHT22;18385;51.572;6.578;2022-11-14T07:12:41;6.00;68.90
31677;DHT22;18385;51.572;6.578;2022-11-14T07:15:26;6.10;69.00
31677;DHT22;18385;51.572;6.578;2022-11-14T07:18:09;6.10;69.00
31677;DHT22;18385;51.572;6.578;2022-11-14T07:20:58;6.10;69.00
31677;DHT22;18385;51.572;6.578;2022-11-14T07:23:42;6.20;69.00
31677;DHT22;18385;51.572;6.578;2022-11-14T07:26:26;6.10;68.90
31677;DHT22;18385;51.572;6.578;2022-11-14T07:29:11;6.20;68.90
31677;DHT22;18385;51.572;6.578;2022-11-14T07:31:55;6.20;68.90
31677;DHT22;18385;51.572;6.578;2022-11-14T07:34:39;6.20;68.90
31677;DHT22;18385;51.572;6.578;2022-11-14T07:37:23;6.30;69.70
31677;DHT22;18385;51.572;6.578;2022-11-14T07:40:08;6.30;69.00
31677;DHT22;18385;51.572;6.578;2022-11-14T07:42:59;6.30;68.90
31677;DHT22;18385;51.572;6.578;2022-11-14T07:45:44;6.30;68.90
31677;DHT22;18385;51.572;6.578;2022-11-14T07:48:29;6.40;68.90
31677;DHT22;18385;51.572;6.578;2022-11-14T07:51:15;6.40;68.90
31677;DHT22;18385;51.572;6.578;2022-11-14T07:54:00;6.50;68.90
31677;DHT22;18385;51.572;6.578;2022-11-14T07:56:44;6.60;68.90
31677;DHT22;18385;51.572;6.578;2022-11-14T07:59:28;6.60;68.80
31677;DHT22;18385;51.572;6.578;2022-11-14T08:02:14;6.70;68.80
31677;DHT22;18385;51.572;6.578;2022-11-14T08:04:59;6.80;68.80
31677;DHT22;18385;51.572;6.578;2022-11-14T08:07:44;6.90;68.90
31677;DHT22;18385;51.572;6.578;2022-11-14T08:10:29;7.00;68.70
31677;DHT22;18385;51.572;6.578;2022-11-14T08:13:13;7.00;68.70
31677;DHT22;18385;51.572;6.578;2022-11-14T08:15:57;7.10;68.60
31677;DHT22;18385;51.572;6.578;2022-11-14T08:18:42;7.20;68.50
31677;DHT22;18385;51.572;6.578;2022-11-14T08:21:27;7.30;68.50
31677;DHT22;18385;51.572;6.578;2022-11-14T08:24:11;7.40;68.40
31677;DHT22;18385;51.572;6.578;2022-11-14T08:26:55;7.50;68.40
31677;DHT22;18385;51.572;6.578;2022-11-14T08:29:39;7.60;68.30
31677;DHT22;18385;51.572;6.578;2022-11-14T08:32:23;7.60;68.30
31677;DHT22;18385;51.572;6.578;2022-11-14T08:35:07;7.70;68.20
31677;DHT22;18385;51.572;6.578;2022-11-14T08:37:51;7.80;68.10
31677;DHT22;18385;51.572;6.578;2022-11-14T08:40:35;7.90;68.20
31677;DHT22;18385;51.572;6.578;2022-11-14T08:43:19;8.00;68.20
31677;DHT22;18385;51.572;6.578;2022-11-14T08:46:04;8.10;68.20
31677;DHT22;18385;51.572;6.578;2022-11-14T08:48:49;8.20;68.10
31677;DHT22;18385;51.572;6.578;2022-11-14T08:51:33;8.30;68.00
31677;DHT22;18385;51.572;6.578;2022-11-14T08:54:18;8.40;67.90
31677;DHT22;18385;51.572;6.578;2022-11-14T08:57:03;8.50;67.80
31677;DHT22;18385;51.572;6.578;2022-11-14T08:59:48;8.60;67.70
31677;DHT22;18385;51.572;6.578;2022-11-14T09:02:32;8.70;67.60
31677;DHT22;18385;51.572;6.578;2022-11-14T09:05:16;8.90;67.70
31677;DHT22;18385;51.572;6.578;2022-11-14T09:08:01;8.90;67.70
31677;DHT22;18385;51.572;6.578;2022-11-14T09:10:46;9.10;67.70
31677;DHT22;18385;51.572;6.578;2022-11-14T09:13:31;9.20;67.70
31677;DHT22;18385;51.572;6.578;2022-11-14T09:16:15;9.30;67.70
31677;DHT22;18385;51.572;6.578;2022-11-14T09:19:00;9.50;67.70
31677;DHT22;18385;51.572;6.578;2022-11-14T09:21:44;9.70;67.60
31677;DHT22;18385;51.572;6.578;2022-11-14T09:24:28;9.90;67.60
31677;DHT22;18385;51.572;6.578;2022-11-14T09:27:12;10.10;67.60
31677;DHT22;18385;51.572;6.578;2022-11-14T09:29:57;10.30;67.60
31677;DHT22;18385;51.572;6.578;2022-11-14T09:32:41;10.50;67.40
31677;DHT22;18385;51.572;6.578;2022-11-14T09:35:26;10.60;67.30
31677;DHT22;18385;51.572;6.578;2022-11-14T09:38:11;10.70;67.30
31677;DHT22;18385;51.572;6.578;2022-11-14T09:41:34;11.00;67.30
31677;DHT22;18385;51.572;6.578;2022-11-14T09:47:49;11.40;66.80
31677;DHT22;18385;51.572;6.578;2022-11-14T09:50:41;11.50;66.70
31677;DHT22;18385;51.572;6.578;2022-11-14T09:53:35;11.70;66.60
31677;DHT22;18385;51.572;6.578;2022-11-14T09:56:24;11.80;66.40
31677;DHT22;18385;51.572;6.578;2022-11-14T09:59:13;11.90;66.30
31677;DHT22;18385;51.572;6.578;2022-11-14T10:08:23;12.00;66.10
31677;DHT22;18385;51.572;6.578;2022-11-14T10:11:15;12.10;66.20
31677;DHT22;18385;51.572;6.578;2022-11-14T10:26:27;12.40;65.70
31677;DHT22;18385;51.572;6.578;2022-11-14T10:35:46;12.60;65.40
31677;DHT22;18385;51.572;6.578;2022-11-14T10:38:45;12.60;65.30
31677;DHT22;18385;51.572;6.578;2022-11-14T10:41:31;12.60;65.40
31677;DHT22;18385;51.572;6.578;2022-11-14T10:44:21;12.70;65.40
31677;DHT22;18385;51.572;6.578;2022-11-14T10:47:13;12.60;65.20
31677;DHT22;18385;51.572;6.578;2022-11-14T10:50:06;12.70;65.30
31677;DHT22;18385;51.572;6.578;2022-11-14T10:53:00;12.70;65.20
31677;DHT22;18385;51.572;6.578;2022-11-14T10:55:49;12.60;65.10
31677;DHT22;18385;51.572;6.578;2022-11-14T10:58:34;12.60;65.20
31677;DHT22;18385;51.572;6.578;2022-11-14T11:01:35;12.60;65.20
31677;DHT22;18385;51.572;6.578;2022-11-14T11:04:30;12.40;65.00
31677;DHT22;18385;51.572;6.578;2022-11-14T11:07:23;12.40;65.30
31677;DHT22;18385;51.572;6.578;2022-11-14T11:10:27;12.30;65.30
31677;DHT22;18385;51.572;6.578;2022-11-14T11:13:40;12.20;65.60
31677;DHT22;18385;51.572;6.578;2022-11-14T11:16:30;12.20;65.60
31677;DHT22;18385;51.572;6.578;2022-11-14T11:19:24;12.10;65.60
31677;DHT22;18385;51.572;6.578;2022-11-14T11:22:36;12.20;65.60
31677;DHT22;18385;51.572;6.578;2022-11-14T11:25:26;12.20;65.70
31677;DHT22;18385;51.572;6.578;2022-11-14T11:28:16;12.20;65.70
31677;DHT22;18385;51.572;6.578;2022-11-14T11:31:06;12.20;65.60
31677;DHT22;18385;51.572;6.578;2022-11-14T11:33:51;12.10;65.50
31677;DHT22;18385;51.572;6.578;2022-11-14T11:36:41;12.20;65.60
31677;DHT22;18385;51.572;6.578;2022-11-14T11:39:29;12.20;65.50
31677;DHT22;18385;51.572;6.578;2022-11-14T11:42:33;12.30;65.50
31677;DHT22;18385;51.572;6.578;2022-11-14T11:45:19;12.30;65.40
31677;DHT22;18385;51.572;6.578;2022-11-14T11:48:23;12.30;65.40
31677;DHT22;18385;51.572;6.578;2022-11-14T11:51:19;12.40;65.50
31677;DHT22;18385;51.572;6.578;2022-11-14T11:54:15;12.60;65.30
31677;DHT22;18385;51.572;6.578;2022-11-14T11:57:03;12.90;65.40
31677;DHT22;18385;51.572;6.578;2022-11-14T11:59:52;13.20;65.90
31677;DHT22;18385;51.572;6.578;2022-11-14T12:02:41;13.40;64.50
31677;DHT22;18385;51.572;6.578;2022-11-14T12:05:50;13.50;64.40
31677;DHT22;18385;51.572;6.578;2022-11-14T12:09:05;13.50;64.20
31677;DHT22;18385;51.572;6.578;2022-11-14T12:12:03;13.70;64.20
31677;DHT22;18385;51.572;6.578;2022-11-14T12:18:10;13.70;64.80
31677;DHT22;18385;51.572;6.578;2022-11-14T12:21:11;13.80;64.00
31677;DHT22;18385;51.572;6.578;2022-11-14T12:30:17;13.80;63.90
31677;DHT22;18385;51.572;6.578;2022-11-14T12:33:11;13.70;63.80
31677;DHT22;18385;51.572;6.578;2022-11-14T12:36:01;13.70;63.70
31677;DHT22;18385;51.572;6.578;2022-11-14T12:38:51;13.70;63.90
31677;DHT22;18385;51.572;6.578;2022-11-14T12:41:36;13.70;63.80
31677;DHT22;18385;51.572;6.578;2022-11-14T12:47:18;13.80;63.80
31677;DHT22;18385;51.572;6.578;2022-11-14T12:50:26;13.80;63.80
31677;DHT22;18385;51.572;6.578;2022-11-14T12:56:45;13.60;63.50
31677;DHT22;18385;51.572;6.578;2022-11-14T12:59:47;13.50;63.90
31677;DHT22;18385;51.572;6.578;2022-11-14T13:05:58;13.50;64.10
31677;DHT22;18385;51.572;6.578;2022-11-14T13:12:33;13.60;63.90
31677;DHT22;18385;51.572;6.578;2022-11-14T13:15:51;13.60;63.90
31677;DHT22;18385;51.572;6.578;2022-11-14T13:27:41;13.40;64.00
31677;DHT22;18385;51.572;6.578;2022-11-14T13:31:04;13.50;64.10
31677;DHT22;18385;51.572;6.578;2022-11-14T13:33:54;13.40;63.80
31677;DHT22;18385;51.572;6.578;2022-11-14T13:40:27;13.30;63.90
31677;DHT22;18385;51.572;6.578;2022-11-14T13:52:46;13.30;64.30
31677;DHT22;18385;51.572;6.578;2022-11-14T13:55:43;13.20;64.10
31677;DHT22;18385;51.572;6.578;2022-11-14T14:14:36;13.30;64.20
31677;DHT22;18385;51.572;6.578;2022-11-14T14:32:23;13.20;64.00
31677;DHT22;18385;51.572;6.578;2022-11-14T14:35:30;13.20;64.10
31677;DHT22;18385;51.572;6.578;2022-11-14T14:38:25;13.30;64.10
31677;DHT22;18385;51.572;6.578;2022-11-14T14:41:12;13.30;64.10
31677;DHT22;18385;51.572;6.578;2022-11-14T14:43:59;13.20;64.00
31677;DHT22;18385;51.572;6.578;2022-11-14T14:46:44;13.20;64.00
31677;DHT22;18385;51.572;6.578;2022-11-14T14:49:36;13.20;64.10
31677;DHT22;18385;51.572;6.578;2022-11-14T14:52:34;13.20;64.00
31677;DHT22;18385;51.572;6.578;2022-11-14T14:55:28;13.20;64.00
31677;DHT22;18385;51.572;6.578;2022-11-14T14:58:24;13.10;64.00
31677;DHT22;18385;51.572;6.578;2022-11-14T15:01:17;13.10;64.10
31677;DHT22;18385;51.572;6.578;2022-11-14T15:04:05;13.10;64.80
31677;DHT22;18385;51.572;6.578;2022-11-14T15:06:50;13.10;64.00
31677;DHT22;18385;51.572;6.578;2022-11-14T15:09:35;13.10;64.10
31677;DHT22;18385;51.572;6.578;2022-11-14T15:12:19;13.10;64.10
31677;DHT22;18385;51.572;6.578;2022-11-14T15:15:07;13.10;64.10
31677;DHT22;18385;51.572;6.578;2022-11-14T15:17:56;13.10;64.10
31677;DHT22;18385;51.572;6.578;2022-11-14T15:20:42;13.20;64.10
31677;DHT22;18385;51.572;6.578;2022-11-14T15:23:26;13.10;64.00
31677;DHT22;18385;51.572;6.578;2022-11-14T15:26:15;13.20;64.00
31677;DHT22;18385;51.572;6.578;2022-11-14T15:34:36;13.20;64.10
31677;DHT22;18385;51.572;6.578;2022-11-14T15:37:22;13.20;64.10
31677;DHT22;18385;51.572;6.578;2022-11-14T15:40:18;13.20;64.00
31677;DHT22;18385;51.572;6.578;2022-11-14T15:49:22;13.10;64.00
31677;DHT22;18385;51.572;6.578;2022-11-14T15:52:18;13.10;64.00
31677;DHT22;18385;51.572;6.578;2022-11-14T15:55:11;13.10;64.10
31677;DHT22;18385;51.572;6.578;2022-11-14T15:57:56;13.10;64.00
31677;DHT22;18385;51.572;6.578;2022-11-14T16:00:49;13.10;64.00
31677;DHT22;18385;51.572;6.578;2022-11-14T16:03:34;13.10;64.00
31677;DHT22;18385;51.572;6.578;2022-11-14T16:06:18;13.10;64.10
31677;DHT22;18385;51.572;6.578;2022-11-14T16:09:02;13.10;64.00
31677;DHT22;18385;51.572;6.578;2022-11-14T16:11:46;13.10;63.90
31677;DHT22;18385;51.572;6.578;2022-11-14T16:14:30;13.10;64.00
31677;DHT22;18385;51.572;6.578;2022-11-14T16:17:16;13.10;64.00
31677;DHT22;18385;51.572;6.578;2022-11-14T16:20:01;13.10;64.00
31677;DHT22;18385;51.572;6.578;2022-11-14T16:22:49;13.10;64.00
31677;DHT22;18385;51.572;6.578;2022-11-14T16:25:34;13.10;64.00
31677;DHT22;18385;51.572;6.578;2022-11-14T16:28:18;13.10;64.00
31677;DHT22;18385;51.572;6.578;2022-11-14T16:31:04;13.10;64.00
31677;DHT22;18385;51.572;6.578;2022-11-14T16:33:53;13.10;64.00
31677;DHT22;18385;51.572;6.578;2022-11-14T16:36:40;13.10;64.00
31677;DHT22;18385;51.572;6.578;2022-11-14T16:39:24;13.10;64.00
31677;DHT22;18385;51.572;6.578;2022-11-14T16:42:10;13.00;64.00
31677;DHT22;18385;51.572;6.578;2022-11-14T16:45:00;13.00;64.10
31677;DHT22;18385;51.572;6.578;2022-11-14T16:47:45;13.10;64.10
31677;DHT22;18385;51.572;6.578;2022-11-14T16:50:29;13.00;64.00
31677;DHT22;18385;51.572;6.578;2022-11-14T16:53:14;13.00;64.00
31677;DHT22;18385;51.572;6.578;2022-11-14T16:55:59;13.00;64.10
31677;DHT22;18385;51.572;6.578;2022-11-14T16:58:43;13.00;64.00
31677;DHT22;18385;51.572;6.578;2022-11-14T17:01:27;13.00;64.10
31677;DHT22;18385;51.572;6.578;2022-11-14T17:04:11;13.00;64.00
31677;DHT22;18385;51.572;6.578;2022-11-14T17:06:56;13.00;64.10
31677;DHT22;18385;51.572;6.578;2022-11-14T17:09:40;13.00;64.10
31677;DHT22;18385;51.572;6.578;2022-11-14T17:12:24;13.00;64.00
31677;DHT22;18385;51.572;6.578;2022-11-14T17:15:09;13.00;64.80
31677;DHT22;18385;51.572;6.578;2022-11-14T17:17:53;13.10;64.10
31677;DHT22;18385;51.572;6.578;2022-11-14T17:20:37;13.10;64.00
31677;DHT22;18385;51.572;6.578;2022-11-14T17:23:22;13.10;63.90
31677;DHT22;18385;51.572;6.578;2022-11-14T17:26:09;13.10;63.80
31677;DHT22;18385;51.572;6.578;2022-11-14T17:28:54;13.10;63.80
31677;DHT22;18385;51.572;6.578;2022-11-14T17:31:38;13.10;63.80
31677;DHT22;18385;51.572;6.578;2022-11-14T17:34:23;13.10;63.90
31677;DHT22;18385;51.572;6.578;2022-11-14T17:37:07;13.00;63.80
31677;DHT22;18385;51.572;6.578;2022-11-14T17:39:51;13.00;64.00
31677;DHT22;18385;51.572;6.578;2022-11-14T17:42:35;13.00;64.00
31677;DHT22;18385;51.572;6.578;2022-11-14T17:45:19;13.00;64.00
31677;DHT22;18385;51.572;6.578;2022-11-14T17:48:04;13.00;64.10
31677;DHT22;18385;51.572;6.578;2022-11-14T17:50:48;12.90;64.00
31677;DHT22;18385;51.572;6.578;2022-11-14T17:53:32;12.90;64.10
31677;DHT22;18385;51.572;6.578;2022-11-14T17:56:22;12.90;64.10
31677;DHT22;18385;51.572;6.578;2022-11-14T17:59:07;12.90;64.20
31677;DHT22;18385;51.572;6.578;2022-11-14T18:01:51;12.90;64.10
31677;DHT22;18385;51.572;6.578;2022-11-14T18:04:38;12.90;64.20
31677;DHT22;18385;51.572;6.578;2022-11-14T18:07:23;12.90;64.20
31677;DHT22;18385;51.572;6.578;2022-11-14T18:10:07;12.90;64.20
31677;DHT22;18385;51.572;6.578;2022-11-14T18:12:52;12.90;64.30
31677;DHT22;18385;51.572;6.578;2022-11-14T18:15:37;12.90;65.00
31677;DHT22;18385;51.572;6.578;2022-11-14T18:18:22;12.90;64.20
31677;DHT22;18385;51.572;6.578;2022-11-14T18:21:17;12.90;64.30
31677;DHT22;18385;51.572;6.578;2022-11-14T18:24:02;12.90;64.30
31677;DHT22;18385;51.572;6.578;2022-11-14T18:26:47;12.90;64.30
31677;DHT22;18385;51.572;6.578;2022-11-14T18:29:31;12.90;64.30
31677;DHT22;18385;51.572;6.578;2022-11-14T18:32:15;12.90;64.30
31677;DHT22;18385;51.572;6.578;2022-11-14T18:35:00;12.90;64.20
31677;DHT22;18385;51.572;6.578;2022-11-14T18:37:44;12.90;64.10
31677;DHT22;18385;51.572;6.578;2022-11-14T18:40:28;12.90;64.20
31677;DHT22;18385;51.572;6.578;2022-11-14T18:43:14;13.00;64.20
31677;DHT22;18385;51.572;6.578;2022-11-14T18:46:09;13.00;64.30
31677;DHT22;18385;51.572;6.578;2022-11-14T18:48:55;13.00;64.30
31677;DHT22;18385;51.572;6.578;2022-11-14T18:51:43;13.00;64.20
31677;DHT22;18385;51.572;6.578;2022-11-14T18:54:27;12.90;64.20
31677;DHT22;18385;51.572;6.578;2022-11-14T18:57:11;12.90;64.10
31677;DHT22;18385;51.572;6.578;2022-11-14T18:59:55;12.70;64.10
31677;DHT22;18385;51.572;6.578;2022-11-14T19:02:39;12.50;64.10
31677;DHT22;18385;51.572;6.578;2022-11-14T19:05:23;12.30;64.30
31677;DHT22;18385;51.572;6.578;2022-11-14T19:08:07;12.20;64.60
31677;DHT22;18385;51.572;6.578;2022-11-14T19:10:51;12.00;64.70
31677;DHT22;18385;51.572;6.578;2022-11-14T19:13:36;11.80;64.90
31677;DHT22;18385;51.572;6.578;2022-11-14T19:16:24;11.70;65.20
31677;DHT22;18385;51.572;6.578;2022-11-14T19:19:08;11.60;65.40
31677;DHT22;18385;51.572;6.578;2022-11-14T19:21:53;11.50;65.50
31677;DHT22;18385;51.572;6.578;2022-11-14T19:24:38;11.40;65.60
31677;DHT22;18385;51.572;6.578;2022-11-14T19:27:25;11.30;65.70
31677;DHT22;18385;51.572;6.578;2022-11-14T19:30:09;11.20;65.80
31677;DHT22;18385;51.572;6.578;2022-11-14T19:32:54;11.20;65.90
31677;DHT22;18385;51.572;6.578;2022-11-14T19:35:38;11.10;66.00
31677;DHT22;18385;51.572;6.578;2022-11-14T19:38:22;11.10;66.10
31677;DHT22;18385;51.572;6.578;2022-11-14T19:41:17;11.00;66.10
31677;DHT22;18385;51.572;6.578;2022-11-14T19:44:03;10.90;66.20
31677;DHT22;18385;51.572;6.578;2022-11-14T19:46:47;10.90;66.30